sensor_id;sensor_type;location;lat;lon;timestamp;temperature;humidity
25112;DHT22;13092;51.996;4.458;2023-08-06T18:27:28;16.20;99.90
25112;DHT22;13092;51.996;4.458;2023-08-06T18:29:56;16.20;99.90
25112;DHT22;13092;51.996;4.458;2023-08-06T18:32:27;16.10;99.90
25112;DHT22;13092;51.996;4.458;2023-08-06T18:34:55;16.20;99.90
25112;DHT22;13092;51.996;4.458;2023-08-06T18:37:24;16.20;99.90
25112;DHT22;13092;51.996;4.458;2023-08-06T18:39:52;16.20;99.90
25112;DHT22;13092;51.996;4.458;2023-08-06T18:42:29;16.10;99.90
25112;DHT22;13092;51.996;4.458;2023-08-06T18:44:57;16.10;99.90
25112;DHT22;13092;51.996;4.458;2023-08-06T18:47:26;16.10;99.90
25112;DHT22;13092;51.996;4.458;2023-08-06T18:49:55;16.10;99.90
25112;DHT22;13092;51.996;4.458;2023-08-06T18:52:23;16.20;99.90
25112;DHT22;13092;51.996;4.458;2023-08-06T18:54:51;16.20;99.90
25112;DHT22;13092;51.996;4.458;2023-08-06T18:57:21;16.20;99.90
25112;DHT22;13092;51.996;4.458;2023-08-06T18:59:51;16.20;99.90
25112;DHT22;13092;51.996;4.458;2023-08-06T19:02:21;16.20;99.90
25112;DHT22;13092;51.996;4.458;2023-08-06T19:04:57;16.30;99.90
25112;DHT22;13092;51.996;4.458;2023-08-06T19:07:31;16.20;99.90
25112;DHT22;13092;51.996;4.458;2023-08-06T19:10:02;16.20;99.90
25112;DHT22;13092;51.996;4.458;2023-08-06T19:12:33;16.30;99.90
25112;DHT22;13092;51.996;4.458;2023-08-06T19:15:04;16.20;99.90
25112;DHT22;13092;51.996;4.458;2023-08-06T19:17:32;16.30;99.90
25112;DHT22;13092;51.996;4.458;2023-08-06T19:20:00;16.30;99.90
25112;DHT22;13092;51.996;4.458;2023-08-06T19:22:30;16.30;99.90
25112;DHT22;13092;51.996;4.458;2023-08-06T19:24:59;16.20;99.90
25112;DHT22;13092;51.996;4.458;2023-08-06T19:27:31;16.20;99.90
25112;DHT22;13092;51.996;4.458;2023-08-06T19:29:59;16.20;99.90
25112;DHT22;13092;51.996;4.458;2023-08-06T19:32:31;16.30;99.90
25112;DHT22;13092;51.996;4.458;2023-08-06T19:35:00;16.30;99.90
25112;DHT22;13092;51.996;4.458;2023-08-06T19:37:28;16.40;99.90
25112;DHT22;13092;51.996;4.458;2023-08-06T19:39:57;16.30;99.90
25112;DHT22;13092;51.996;4.458;2023-08-06T19:42:26;16.50;99.90
25112;DHT22;13092;51.996;4.458;2023-08-06T19:44:54;16.50;99.90
25112;DHT22;13092;51.996;4.458;2023-08-06T19:47:22;16.50;99.90
25112;DHT22;13092;51.996;4.458;2023-08-06T19:49:52;16.50;99.90
25112;DHT22;13092;51.996;4.458;2023-08-06T19:52:20;16.50;99.90
25112;DHT22;13092;51.996;4.458;2023-08-06T19:54:48;16.50;99.90
25112;DHT22;13092;51.996;4.458;2023-08-06T19:57:16;16.50;99.90
25112;DHT22;13092;51.996;4.458;2023-08-06T19:59:46;16.50;99.90
25112;DHT22;13092;51.996;4.458;2023-08-06T20:02:14;16.60;99.90
25112;DHT22;13092;51.996;4.458;2023-08-06T20:04:43;16.60;99.90
25112;DHT22;13092;51.996;4.458;2023-08-06T20:07:14;16.60;99.90
25112;DHT22;13092;51.996;4.458;2023-08-06T20:09:43;16.50;99.90
25112;DHT22;13092;51.996;4.458;2023-08-06T20:12:13;16.60;99.90
25112;DHT22;13092;51.996;4.458;2023-08-06T20:14:41;16.40;99.90
25112;DHT22;13092;51.996;4.458;2023-08-06T20:17:09;16.50;99.90
25112;DHT22;13092;51.996;4.458;2023-08-06T20:19:38;16.50;99.90
25112;DHT22;13092;51.996;4.458;2023-08-06T20:22:06;16.50;99.90
25112;DHT22;13092;51.996;4.458;2023-08-06T20:24:40;16.50;99.90
25112;DHT22;13092;51.996;4.458;2023-08-06T20:27:09;16.40;99.90
25112;DHT22;13092;51.996;4.458;2023-08-06T20:29:37;16.40;99.90
25112;DHT22;13092;51.996;4.458;2023-08-06T20:32:06;16.30;99.90
25112;DHT22;13092;51.996;4.458;2023-08-06T20:34:34;16.20;99.90
25112;DHT22;13092;51.996;4.458;2023-08-06T20:37:02;16.10;99.90
25112;DHT22;13092;51.996;4.458;2023-08-06T20:39:31;15.90;99.90
25112;DHT22;13092;51.996;4.458;2023-08-06T20:42:01;15.90;99.90
25112;DHT22;13092;51.996;4.458;2023-08-06T20:44:29;15.80;99.90
25112;DHT22;13092;51.996;4.458;2023-08-06T20:47:01;15.80;99.90
25112;DHT22;13092;51.996;4.458;2023-08-06T20:49:29;15.80;99.90
25112;DHT22;13092;51.996;4.458;2023-08-06T20:51:57;15.90;99.90
25112;DHT22;13092;51.996;4.458;2023-08-06T20:54:26;15.90;99.90
25112;DHT22;13092;51.996;4.458;2023-08-06T20:56:54;15.90;99.90
25112;DHT22;13092;51.996;4.458;2023-08-06T20:59:23;16.00;99.90
25112;DHT22;13092;51.996;4.458;2023-08-06T21:01:51;15.90;99.90
25112;DHT22;13092;51.996;4.458;2023-08-06T21:04:23;15.90;99.90
25112;DHT22;13092;51.996;4.458;2023-08-06T21:06:51;15.80;99.90
25112;DHT22;13092;51.996;4.458;2023-08-06T21:09:19;15.80;99.90
25112;DHT22;13092;51.996;4.458;2023-08-06T21:11:48;15.70;99.90
25112;DHT22;13092;51.996;4.458;2023-08-06T21:14:16;15.70;99.90
25112;DHT22;13092;51.996;4.458;2023-08-06T21:16:45;15.70;99.90
25112;DHT22;13092;51.996;4.458;2023-08-06T21:19:13;15.70;99.90
25112;DHT22;13092;51.996;4.458;2023-08-06T21:21:42;15.60;99.90
25112;DHT22;13092;51.996;4.458;2023-08-06T21:24:10;15.50;99.90
25112;DHT22;13092;51.996;4.458;2023-08-06T21:26:38;15.50;99.90
25112;DHT22;13092;51.996;4.458;2023-08-06T21:29:06;15.50;99.90
25112;DHT22;13092;51.996;4.458;2023-08-06T21:31:35;15.50;99.90
25112;DHT22;13092;51.996;4.458;2023-08-06T21:34:05;15.50;99.90
25112;DHT22;13092;51.996;4.458;2023-08-06T21:36:33;15.60;99.90
25112;DHT22;13092;51.996;4.458;2023-08-06T21:39:04;15.60;99.90
25112;DHT22;13092;51.996;4.458;2023-08-06T21:41:32;15.60;99.90
25112;DHT22;13092;51.996;4.458;2023-08-06T21:44:04;15.70;99.90
25112;DHT22;13092;51.996;4.458;2023-08-06T21:46:32;15.70;99.90
25112;DHT22;13092;51.996;4.458;2023-08-06T21:49:04;15.70;99.90
25112;DHT22;13092;51.996;4.458;2023-08-06T21:51:33;15.70;99.90
25112;DHT22;13092;51.996;4.458;2023-08-06T21:54:01;15.80;99.90
25112;DHT22;13092;51.996;4.458;2023-08-06T21:56:29;15.80;99.90
25112;DHT22;13092;51.996;4.458;2023-08-06T21:58:58;15.80;99.90
25112;DHT22;13092;51.996;4.458;2023-08-06T22:01:31;15.80;99.90
25112;DHT22;13092;51.996;4.458;2023-08-06T22:03:59;15.80;99.90
25112;DHT22;13092;51.996;4.458;2023-08-06T22:06:29;15.80;99.90
25112;DHT22;13092;51.996;4.458;2023-08-06T22:08:57;15.80;99.90
25112;DHT22;13092;51.996;4.458;2023-08-06T22:11:25;15.80;99.90
25112;DHT22;13092;51.996;4.458;2023-08-06T22:13:56;15.80;99.90
25112;DHT22;13092;51.996;4.458;2023-08-06T22:16:25;15.80;99.90
25112;DHT22;13092;51.996;4.458;2023-08-06T22:18:53;15.80;99.90
25112;DHT22;13092;51.996;4.458;2023-08-06T22:21:21;15.80;99.90
25112;DHT22;13092;51.996;4.458;2023-08-06T22:23:51;15.80;99.90
25112;DHT22;13092;51.996;4.458;2023-08-06T22:26:19;15.70;99.90
25112;DHT22;13092;51.996;4.458;2023-08-06T22:28:56;15.70;99.90
25112;DHT22;13092;51.996;4.458;2023-08-06T22:31:28;15.80;99.90
25112;DHT22;13092;51.996;4.458;2023-08-06T22:33:56;15.60;99.90
25112;DHT22;13092;51.996;4.458;2023-08-06T22:36:24;15.50;99.90
25112;DHT22;13092;51.996;4.458;2023-08-06T22:38:54;15.60;99.90
25112;DHT22;13092;51.996;4.458;2023-08-06T22:41:22;15.60;99.90
25112;DHT22;13092;51.996;4.458;2023-08-06T22:43:51;15.70;99.90
25112;DHT22;13092;51.996;4.458;2023-08-06T22:46:19;15.70;99.90
25112;DHT22;13092;51.996;4.458;2023-08-06T22:48:48;15.80;99.90
25112;DHT22;13092;51.996;4.458;2023-08-06T22:51:16;15.90;99.90
25112;DHT22;13092;51.996;4.458;2023-08-06T22:53:45;15.90;99.90
25112;DHT22;13092;51.996;4.458;2023-08-06T22:56:14;16.00;99.90
25112;DHT22;13092;51.996;4.458;2023-08-06T22:58:42;16.00;99.90
25112;DHT22;13092;51.996;4.458;2023-08-06T23:01:12;16.10;99.90
25112;DHT22;13092;51.996;4.458;2023-08-06T23:03:40;16.10;99.90
25112;DHT22;13092;51.996;4.458;2023-08-06T23:06:10;16.10;99.90
25112;DHT22;13092;51.996;4.458;2023-08-06T23:08:38;16.00;99.90
25112;DHT22;13092;51.996;4.458;2023-08-06T23:11:06;15.80;99.90
25112;DHT22;13092;51.996;4.458;2023-08-06T23:13:38;15.70;99.90
25112;DHT22;13092;51.996;4.458;2023-08-06T23:16:08;15.60;99.90
25112;DHT22;13092;51.996;4.458;2023-08-06T23:18:38;15.50;99.90
25112;DHT22;13092;51.996;4.458;2023-08-06T23:21:10;15.50;99.90
25112;DHT22;13092;51.996;4.458;2023-08-06T23:23:38;15.60;99.90
25112;DHT22;13092;51.996;4.458;2023-08-06T23:26:06;15.60;99.90
25112;DHT22;13092;51.996;4.458;2023-08-06T23:28:34;15.60;99.90
25112;DHT22;13092;51.996;4.458;2023-08-06T23:31:07;15.70;99.90
25112;DHT22;13092;51.996;4.458;2023-08-06T23:33:35;15.70;99.90
25112;DHT22;13092;51.996;4.458;2023-08-06T23:36:06;15.80;99.90
25112;DHT22;13092;51.996;4.458;2023-08-06T23:38:37;15.90;99.90
25112;DHT22;13092;51.996;4.458;2023-08-06T23:41:05;15.90;99.90
25112;DHT22;13092;51.996;4.458;2023-08-06T23:43:34;15.90;99.90
25112;DHT22;13092;51.996;4.458;2023-08-06T23:46:03;16.00;99.90
25112;DHT22;13092;51.996;4.458;2023-08-06T23:48:31;16.10;99.90
25112;DHT22;13092;51.996;4.458;2023-08-06T23:50:59;16.00;99.90
25112;DHT22;13092;51.996;4.458;2023-08-06T23:53:28;16.00;99.90
25112;DHT22;13092;51.996;4.458;2023-08-06T23:55:56;16.10;99.90
25112;DHT22;13092;51.996;4.458;2023-08-06T23:58:24;16.20;99.90
